Time;durP1;ratioP1;P1;durP2;ratioP2;P2;SDS_P1;SDS_P2;PMS_P1;PMS_P2;Temp;Humidity;BMP_temperature;BMP_pressure;BME280_temperature;BME280_humidity;BME280_pressure;Samples;Min_cycle;Max_cycle;Signal;HPM_P1;HPM_P2
2023/05/01 00:00:27;;;;;;;1.52;1.45;;;13.70;99.90;;;;;;4998547;28;20208;-66
2023/05/01 00:02:54;;;;;;;1.40;1.40;;;13.70;99.90;;;;;;4996773;28;20797;-66
2023/05/01 00:05:21;;;;;;;1.50;1.40;;;13.70;99.90;;;;;;4997323;28;20288;-66
2023/05/01 00:07:48;;;;;;;1.20;1.20;;;13.60;99.90;;;;;;4996895;28;20223;-67
2023/05/01 00:10:15;;;;;;;1.35;1.35;;;13.60;99.90;;;;;;4997621;28;20298;-66
2023/05/01 00:12:43;;;;;;;1.30;1.30;;;13.60;99.90;;;;;;4998436;28;20319;-67
2023/05/01 00:15:11;;;;;;;1.30;1.27;;;13.60;99.90;;;;;;4978684;28;20223;-67
2023/05/01 00:17:38;;;;;;;1.20;1.20;;;13.50;99.90;;;;;;5002224;28;20282;-67
2023/05/01 00:20:06;;;;;;;1.30;1.30;;;13.50;99.90;;;;;;5002408;28;20283;-66
2023/05/01 00:22:33;;;;;;;1.33;1.30;;;13.50;99.90;;;;;;5001836;28;20307;-66
2023/05/01 00:25:00;;;;;;;1.42;1.42;;;13.50;99.90;;;;;;5002191;28;20282;-66
2023/05/01 00:27:27;;;;;;;1.13;1.10;;;13.50;99.90;;;;;;4994387;28;20300;-66
2023/05/01 00:29:56;;;;;;;1.60;1.50;;;13.50;99.90;;;;;;4999934;28;20705;-66
2023/05/01 00:32:23;;;;;;;1.35;1.30;;;13.50;99.90;;;;;;5000939;28;20220;-67
2023/05/01 00:34:50;;;;;;;1.40;1.35;;;13.50;99.90;;;;;;5002835;28;20299;-67
2023/05/01 00:37:17;;;;;;;1.40;1.20;;;13.50;99.90;;;;;;4985027;28;20197;-67
2023/05/01 00:39:44;;;;;;;1.10;1.10;;;13.50;99.90;;;;;;5005701;28;20293;-67
2023/05/01 00:42:11;;;;;;;1.30;1.20;;;13.40;99.90;;;;;;5000397;28;20220;-67
2023/05/01 00:44:38;;;;;;;1.63;1.42;;;13.40;99.90;;;;;;5000537;28;20589;-66
2023/05/01 00:47:07;;;;;;;1.20;1.20;;;13.40;99.90;;;;;;4999040;28;20776;-66
2023/05/01 00:49:34;;;;;;;1.20;1.17;;;13.30;99.90;;;;;;5003365;28;20236;-67
2023/05/01 00:52:01;;;;;;;1.20;1.20;;;13.30;99.90;;;;;;5001229;28;20251;-67
2023/05/01 00:54:29;;;;;;;1.40;1.30;;;13.30;99.90;;;;;;5002840;28;20248;-67
2023/05/01 00:56:57;;;;;;;1.23;1.20;;;13.20;99.90;;;;;;5002002;28;20639;-67
2023/05/01 00:59:24;;;;;;;1.25;1.25;;;13.20;99.90;;;;;;5001516;28;20200;-67
2023/05/01 01:01:51;;;;;;;1.20;1.20;;;13.20;99.90;;;;;;4999585;28;20196;-66
2023/05/01 01:04:20;;;;;;;1.50;1.40;;;13.30;99.90;;;;;;5001295;28;20661;-67
2023/05/01 01:06:58;;;;;;;1.50;1.40;;;13.30;99.90;;;;;;4998675;28;20267;-67
2023/05/01 01:09:39;;;;;;;1.20;1.20;;;13.30;99.90;;;;;;4998933;28;20804;-67
2023/05/01 01:12:13;;;;;;;1.25;1.25;;;13.30;99.90;;;;;;5004005;28;20250;-67
2023/05/01 01:14:46;;;;;;;1.30;1.30;;;13.30;99.90;;;;;;5001495;28;20331;-67
2023/05/01 01:17:21;;;;;;;1.30;1.30;;;13.30;99.90;;;;;;5000381;28;20232;-67
2023/05/01 01:20:16;;;;;;;1.50;1.40;;;13.30;99.90;;;;;;5002009;28;20206;-67
2023/05/01 01:22:51;;;;;;;1.20;1.20;;;13.30;99.90;;;;;;4993446;28;20718;-67
2023/05/01 01:25:47;;;;;;;1.30;1.30;;;13.20;99.90;;;;;;5004469;28;20192;-67
2023/05/01 01:28:28;;;;;;;1.60;1.50;;;13.20;99.90;;;;;;4999100;28;20299;-66
2023/05/01 01:31:20;;;;;;;1.17;1.17;;;13.20;99.90;;;;;;5004475;28;20240;-66
2023/05/01 01:34:11;;;;;;;1.38;1.38;;;13.20;99.90;;;;;;5003372;28;20864;-65
2023/05/01 01:36:43;;;;;;;1.25;1.25;;;13.20;99.90;;;;;;4999371;28;20729;-66
2023/05/01 01:39:16;;;;;;;1.40;1.40;;;13.20;99.90;;;;;;5007066;28;20196;-66
2023/05/01 01:41:50;;;;;;;1.50;1.40;;;13.20;99.90;;;;;;5012703;28;20198;-65
2023/05/01 01:44:20;;;;;;;1.50;1.40;;;13.20;99.90;;;;;;5013223;28;20216;-66
2023/05/01 01:46:50;;;;;;;1.20;1.20;;;13.20;99.90;;;;;;5000023;28;20200;-66
2023/05/01 01:49:23;;;;;;;1.25;1.25;;;13.20;99.90;;;;;;4998011;28;20197;-66
2023/05/01 01:51:54;;;;;;;1.80;1.70;;;13.20;99.90;;;;;;5001067;28;20232;-66
2023/05/01 01:54:26;;;;;;;1.40;1.30;;;13.20;99.90;;;;;;5003583;28;20212;-67
2023/05/01 01:56:55;;;;;;;1.40;1.40;;;13.20;99.90;;;;;;5004120;28;20279;-66
2023/05/01 01:59:24;;;;;;;1.40;1.40;;;13.20;99.90;;;;;;4986679;28;20311;-65
2023/05/01 02:01:55;;;;;;;1.20;1.20;;;13.30;99.90;;;;;;4997225;28;20231;-66
2023/05/01 02:04:25;;;;;;;1.30;1.23;;;13.30;99.90;;;;;;4999834;28;20287;-66
2023/05/01 02:06:55;;;;;;;1.40;1.40;;;13.30;99.90;;;;;;4998855;28;20730;-65
2023/05/01 02:09:25;;;;;;;1.20;1.20;;;13.30;99.90;;;;;;5004972;28;20286;-66
2023/05/01 02:11:54;;;;;;;1.67;1.60;;;13.30;99.90;;;;;;5002570;28;20197;-66
2023/05/01 02:14:22;;;;;;;1.42;1.40;;;13.30;99.90;;;;;;5001462;28;20223;-66
2023/05/01 02:16:51;;;;;;;1.20;1.20;;;13.30;99.90;;;;;;5002551;28;20359;-66
2023/05/01 02:19:19;;;;;;;1.50;1.45;;;13.30;99.90;;;;;;5001758;28;20201;-66
2023/05/01 02:21:49;;;;;;;1.35;1.30;;;13.30;99.90;;;;;;5001285;28;20208;-66
2023/05/01 02:24:17;;;;;;;1.20;1.20;;;13.30;99.90;;;;;;5006476;28;20223;-66
2023/05/01 02:26:51;;;;;;;1.25;1.25;;;13.20;99.90;;;;;;4984103;28;20314;-65
2023/05/01 02:29:18;;;;;;;1.33;1.33;;;13.20;99.90;;;;;;5002893;28;20204;-66
2023/05/01 02:31:45;;;;;;;1.10;1.10;;;13.20;99.90;;;;;;5007336;28;20287;-66
2023/05/01 02:34:13;;;;;;;1.30;1.30;;;13.20;99.90;;;;;;4999719;28;20291;-66
2023/05/01 02:36:40;;;;;;;1.33;1.30;;;13.20;99.90;;;;;;5000164;28;20213;-66
2023/05/01 02:39:08;;;;;;;1.30;1.30;;;13.20;99.90;;;;;;5001439;28;20330;-66
2023/05/01 02:41:38;;;;;;;1.60;1.50;;;13.20;99.90;;;;;;4981264;28;20291;-66
2023/05/01 02:44:10;;;;;;;1.10;1.10;;;13.30;99.90;;;;;;5000892;28;20297;-66
2023/05/01 02:46:37;;;;;;;1.17;1.17;;;13.30;99.90;;;;;;5001951;28;20211;-66
2023/05/01 02:49:06;;;;;;;1.27;1.27;;;13.30;99.90;;;;;;4984437;28;20266;-66
2023/05/01 02:51:35;;;;;;;1.38;1.38;;;13.30;99.90;;;;;;4998639;28;20287;-65
2023/05/01 02:54:03;;;;;;;1.33;1.33;;;13.30;99.90;;;;;;5002116;28;20220;-66
2023/05/01 02:56:32;;;;;;;1.40;1.40;;;13.30;99.90;;;;;;5001680;28;20591;-66
2023/05/01 02:58:58;;;;;;;1.30;1.30;;;13.30;99.90;;;;;;4998924;28;20203;-66
2023/05/01 03:01:26;;;;;;;1.35;1.33;;;13.30;99.90;;;;;;5000533;28;20287;-67
2023/05/01 03:03:53;;;;;;;1.23;1.23;;;13.30;99.90;;;;;;5001307;28;20773;-66
2023/05/01 03:06:20;;;;;;;1.30;1.30;;;13.30;99.90;;;;;;4996841;28;20295;-66
2023/05/01 03:08:48;;;;;;;1.40;1.40;;;13.30;99.90;;;;;;5004649;28;20271;-66
2023/05/01 03:11:15;;;;;;;1.58;1.55;;;13.20;99.90;;;;;;4998158;28;20279;-67
2023/05/01 03:13:45;;;;;;;1.50;1.40;;;13.30;99.90;;;;;;5003561;28;20268;-66
2023/05/01 03:16:12;;;;;;;1.25;1.25;;;13.20;99.90;;;;;;4997662;28;20217;-67
2023/05/01 03:18:39;;;;;;;1.90;1.60;;;13.20;99.90;;;;;;5000783;28;20291;-66
2023/05/01 03:21:06;;;;;;;1.27;1.27;;;13.30;99.90;;;;;;4998999;28;20287;-67
2023/05/01 03:23:33;;;;;;;1.33;1.33;;;13.20;99.90;;;;;;5002717;28;20776;-67
2023/05/01 03:26:00;;;;;;;1.30;1.30;;;13.30;99.90;;;;;;4996521;28;20284;-66
2023/05/01 03:28:27;;;;;;;1.20;1.20;;;13.20;99.90;;;;;;5000025;28;20250;-66
2023/05/01 03:30:56;;;;;;;1.60;1.50;;;13.30;99.90;;;;;;5002862;28;20228;-67
2023/05/01 03:33:23;;;;;;;1.38;1.38;;;13.30;99.90;;;;;;5000324;28;20248;-67
2023/05/01 03:36:00;;;;;;;1.25;1.25;;;13.20;99.90;;;;;;4999685;28;20730;-67
2023/05/01 03:38:27;;;;;;;1.40;1.40;;;13.20;99.90;;;;;;5002278;28;20204;-67
2023/05/01 03:40:54;;;;;;;1.52;1.33;;;13.20;99.90;;;;;;4999342;28;20291;-67
2023/05/01 03:43:20;;;;;;;1.40;1.40;;;13.20;99.90;;;;;;5000916;28;20820;-67
2023/05/01 03:45:48;;;;;;;1.50;1.40;;;13.20;99.90;;;;;;5002613;28;20683;-66
2023/05/01 03:48:16;;;;;;;1.45;1.35;;;13.20;99.90;;;;;;4983157;28;20204;-67
2023/05/01 03:50:43;;;;;;;1.30;1.30;;;13.20;99.90;;;;;;4984803;28;20819;-66
2023/05/01 03:53:10;;;;;;;1.60;1.50;;;13.20;99.90;;;;;;5004306;28;20219;-66
2023/05/01 03:55:37;;;;;;;1.65;1.52;;;13.10;99.90;;;;;;4998426;28;20299;-67
2023/05/01 03:58:04;;;;;;;1.30;1.30;;;13.10;99.90;;;;;;4993980;28;20292;-66
2023/05/01 04:00:32;;;;;;;1.27;1.27;;;13.10;99.90;;;;;;4997658;28;20208;-66
2023/05/01 04:02:59;;;;;;;1.50;1.40;;;13.10;99.90;;;;;;5003237;28;20317;-67
2023/05/01 04:05:28;;;;;;;1.70;1.60;;;13.10;99.90;;;;;;5000463;28;20240;-66
2023/05/01 04:07:55;;;;;;;2.22;1.40;;;13.10;99.90;;;;;;5000731;28;20298;-67
2023/05/01 04:10:23;;;;;;;1.33;1.33;;;13.10;99.90;;;;;;4998919;28;20192;-66
2023/05/01 04:12:50;;;;;;;2.15;1.50;;;13.10;99.90;;;;;;4986359;28;20392;-66
2023/05/01 04:15:18;;;;;;;1.60;1.50;;;13.00;99.90;;;;;;5004720;28;20247;-66
2023/05/01 04:17:46;;;;;;;1.40;1.40;;;13.00;99.90;;;;;;4984865;28;20694;-67
2023/05/01 04:20:15;;;;;;;1.35;1.33;;;13.00;99.90;;;;;;4998455;28;20274;-66
2023/05/01 04:22:43;;;;;;;1.40;1.40;;;13.10;99.90;;;;;;4999391;28;20235;-67
2023/05/01 04:25:10;;;;;;;1.30;1.30;;;13.10;99.90;;;;;;5000355;28;20243;-65
2023/05/01 04:27:37;;;;;;;1.65;1.60;;;13.10;99.90;;;;;;5011979;28;20227;-66
2023/05/01 04:30:05;;;;;;;1.50;1.50;;;13.10;99.90;;;;;;5010017;28;20201;-67
2023/05/01 04:32:33;;;;;;;1.73;1.63;;;13.00;99.90;;;;;;5004590;28;20651;-65
2023/05/01 04:35:00;;;;;;;1.20;1.20;;;13.00;99.90;;;;;;5022251;28;20284;-66
2023/05/01 04:37:27;;;;;;;1.38;1.38;;;13.10;99.90;;;;;;4994298;28;20295;-66
2023/05/01 04:39:56;;;;;;;1.60;1.50;;;13.10;99.90;;;;;;4997824;28;20299;-66
2023/05/01 04:42:23;;;;;;;1.40;1.40;;;13.10;99.90;;;;;;4998803;28;20252;-67
2023/05/01 04:44:50;;;;;;;1.38;1.38;;;13.10;99.90;;;;;;5001861;28;20295;-66
2023/05/01 04:47:17;;;;;;;1.45;1.40;;;13.10;99.90;;;;;;4997152;28;20212;-66
2023/05/01 04:49:44;;;;;;;1.63;1.52;;;13.10;99.90;;;;;;4980331;28;20299;-66
2023/05/01 04:52:11;;;;;;;1.50;1.40;;;13.10;99.90;;;;;;5000258;28;20308;-66
2023/05/01 04:54:38;;;;;;;1.92;1.83;;;13.10;99.90;;;;;;4984938;28;20748;-66
2023/05/01 04:57:06;;;;;;;1.20;1.20;;;13.10;99.90;;;;;;4997052;28;20292;-66
2023/05/01 04:59:33;;;;;;;1.73;1.63;;;13.10;99.90;;;;;;4998217;28;20231;-67
2023/05/01 05:02:00;;;;;;;1.75;1.65;;;13.10;99.90;;;;;;5007262;28;20232;-66
2023/05/01 05:04:28;;;;;;;1.65;1.55;;;13.10;99.90;;;;;;5003773;28;20283;-66
2023/05/01 05:06:55;;;;;;;2.33;2.03;;;13.10;99.90;;;;;;5006044;28;21915;-66
2023/05/01 05:09:22;;;;;;;2.08;1.88;;;13.10;99.90;;;;;;4989241;28;20677;-66
2023/05/01 05:11:49;;;;;;;5.60;2.10;;;13.10;99.90;;;;;;5005320;28;20204;-66
2023/05/01 05:14:17;;;;;;;1.88;1.77;;;13.10;99.90;;;;;;5003116;28;20305;-67
2023/05/01 05:16:44;;;;;;;1.83;1.73;;;13.10;99.90;;;;;;5005394;28;20313;-66
2023/05/01 05:19:12;;;;;;;2.35;1.80;;;13.10;99.90;;;;;;4998604;28;20836;-67
2023/05/01 05:21:39;;;;;;;1.75;1.65;;;13.20;99.90;;;;;;5004753;28;20714;-66
2023/05/01 05:24:06;;;;;;;2.53;1.88;;;13.20;99.90;;;;;;5004527;28;20308;-67
2023/05/01 05:26:33;;;;;;;1.88;1.77;;;13.20;99.90;;;;;;5002938;28;20196;-67
2023/05/01 05:29:00;;;;;;;1.98;1.88;;;13.20;99.90;;;;;;4998866;28;20672;-67
2023/05/01 05:31:29;;;;;;;1.88;1.77;;;13.20;99.90;;;;;;5003200;28;20219;-67
2023/05/01 05:33:56;;;;;;;1.80;1.70;;;13.30;99.90;;;;;;5002168;28;20323;-67
2023/05/01 05:36:23;;;;;;;1.60;1.50;;;13.30;99.90;;;;;;5005106;28;20302;-67
2023/05/01 05:38:50;;;;;;;1.75;1.65;;;13.40;99.90;;;;;;4986297;28;20500;-66
2023/05/01 05:41:17;;;;;;;3.97;1.60;;;13.40;99.90;;;;;;5001563;28;20296;-66
2023/05/01 05:43:44;;;;;;;1.90;1.80;;;13.50;99.90;;;;;;5004169;28;20311;-66
2023/05/01 05:46:12;;;;;;;1.80;1.70;;;13.50;99.90;;;;;;4984842;28;20905;-66
2023/05/01 05:48:40;;;;;;;1.52;1.52;;;13.50;99.90;;;;;;5003096;28;20228;-66
2023/05/01 05:51:07;;;;;;;1.60;1.50;;;13.50;99.90;;;;;;5003189;28;20204;-66
2023/05/01 05:53:34;;;;;;;2.13;2.00;;;13.60;99.90;;;;;;5003828;28;20247;-66
2023/05/01 05:56:01;;;;;;;1.70;1.60;;;13.60;99.90;;;;;;5003600;28;20247;-66
2023/05/01 05:58:28;;;;;;;1.73;1.63;;;13.60;99.90;;;;;;5000645;28;20224;-66
2023/05/01 06:00:55;;;;;;;1.80;1.70;;;13.60;99.90;;;;;;5000595;28;20292;-66
2023/05/01 06:03:23;;;;;;;1.80;1.70;;;13.70;99.90;;;;;;4985887;28;20231;-65
2023/05/01 06:05:51;;;;;;;1.55;1.50;;;13.70;99.90;;;;;;4996414;28;20939;-66
2023/05/01 06:08:18;;;;;;;1.58;1.48;;;13.80;99.90;;;;;;4994233;28;20228;-66
2023/05/01 06:10:45;;;;;;;1.73;1.63;;;13.80;99.90;;;;;;4999079;28;20208;-66
2023/05/01 06:13:12;;;;;;;1.42;1.33;;;13.80;99.90;;;;;;4999981;28;20356;-65
2023/05/01 06:15:40;;;;;;;1.75;1.65;;;13.90;99.90;;;;;;5001587;28;20255;-67
2023/05/01 06:18:07;;;;;;;1.70;1.60;;;13.90;99.90;;;;;;5001863;28;20634;-65
2023/05/01 06:20:34;;;;;;;1.55;1.50;;;13.90;99.90;;;;;;5003223;28;20313;-65
2023/05/01 06:23:02;;;;;;;1.90;1.80;;;13.90;99.90;;;;;;4999255;28;20260;-65
2023/05/01 06:25:31;;;;;;;1.60;1.50;;;13.80;99.90;;;;;;4999077;28;20266;-65
2023/05/01 06:27:58;;;;;;;1.80;1.70;;;13.80;99.90;;;;;;4998809;28;20302;-65
2023/05/01 06:30:25;;;;;;;1.90;1.80;;;13.80;99.90;;;;;;4996923;28;20231;-65
2023/05/01 06:32:52;;;;;;;1.70;1.60;;;13.80;99.90;;;;;;4997672;28;20365;-65
2023/05/01 06:35:19;;;;;;;1.85;1.75;;;13.80;99.90;;;;;;4999158;28;20291;-66
2023/05/01 06:37:47;;;;;;;1.90;1.80;;;13.80;99.90;;;;;;4997081;28;20585;-66
2023/05/01 06:40:15;;;;;;;1.70;1.60;;;13.70;99.90;;;;;;4979898;28;20256;-66
2023/05/01 06:42:42;;;;;;;1.70;1.60;;;13.80;99.90;;;;;;4982984;28;20228;-65
2023/05/01 06:45:09;;;;;;;2.75;1.80;;;13.80;99.90;;;;;;5001293;28;20216;-65
2023/05/01 06:47:36;;;;;;;1.90;1.80;;;13.90;99.90;;;;;;4995292;28;20196;-64
2023/05/01 06:50:04;;;;;;;2.03;1.92;;;13.90;99.90;;;;;;4999276;28;20933;-66
2023/05/01 06:52:31;;;;;;;1.92;1.83;;;14.00;99.90;;;;;;5000220;28;20897;-65
2023/05/01 06:54:58;;;;;;;1.90;1.80;;;14.10;99.90;;;;;;5000423;28;20287;-65
2023/05/01 06:57:27;;;;;;;2.00;1.90;;;14.10;99.90;;;;;;4999729;28;20968;-65
2023/05/01 06:59:55;;;;;;;1.77;1.67;;;14.20;99.90;;;;;;5003237;28;20275;-65
2023/05/01 07:02:22;;;;;;;2.20;2.00;;;14.20;99.90;;;;;;5000522;28;20735;-65
2023/05/01 07:04:49;;;;;;;2.28;2.17;;;14.40;99.90;;;;;;5000395;28;20295;-65
2023/05/01 07:07:16;;;;;;;2.00;1.90;;;14.40;99.90;;;;;;5000505;28;20263;-65
2023/05/01 07:09:43;;;;;;;2.50;2.17;;;14.40;99.90;;;;;;4997108;28;20244;-65
2023/05/01 07:12:11;;;;;;;2.40;2.30;;;14.40;99.90;;;;;;4997477;28;20252;-65
2023/05/01 07:14:40;;;;;;;2.20;2.10;;;14.50;99.90;;;;;;5001316;28;20706;-65
2023/05/01 07:17:08;;;;;;;2.30;2.20;;;14.50;99.90;;;;;;5001007;28;20213;-65
2023/05/01 07:19:35;;;;;;;2.30;2.10;;;14.50;99.90;;;;;;4997160;28;20224;-65
2023/05/01 07:22:03;;;;;;;2.47;2.28;;;14.60;99.90;;;;;;5000972;28;20291;-66
2023/05/01 07:24:30;;;;;;;2.33;2.20;;;14.60;99.90;;;;;;4999413;28;20283;-65
2023/05/01 07:26:57;;;;;;;2.30;2.17;;;14.80;99.90;;;;;;5000318;28;20259;-65
2023/05/01 07:29:24;;;;;;;2.42;2.33;;;14.90;99.90;;;;;;5009848;28;20250;-66
2023/05/01 07:31:52;;;;;;;2.17;2.08;;;15.10;99.90;;;;;;5007634;28;20270;-66
2023/05/01 07:34:19;;;;;;;2.20;2.10;;;15.30;99.90;;;;;;5006324;28;20204;-66
2023/05/01 07:36:46;;;;;;;2.03;1.92;;;15.50;99.90;;;;;;4998874;28;20248;-66
2023/05/01 07:39:13;;;;;;;2.00;1.90;;;15.80;99.90;;;;;;4997816;28;20674;-66
2023/05/01 07:41:40;;;;;;;2.17;2.08;;;16.00;99.90;;;;;;4995767;28;20197;-67
2023/05/01 07:44:07;;;;;;;2.00;1.90;;;16.20;99.90;;;;;;4999242;28;20333;-67
2023/05/01 07:46:35;;;;;;;2.30;2.20;;;16.20;99.90;;;;;;5000516;28;20859;-67
2023/05/01 07:49:04;;;;;;;1.67;1.58;;;16.30;99.90;;;;;;4996397;28;20737;-67
2023/05/01 07:51:31;;;;;;;1.92;1.80;;;16.40;99.90;;;;;;4998561;28;20227;-66
2023/05/01 07:54:02;;;;;;;1.70;1.60;;;16.50;99.90;;;;;;4993485;28;20255;-67
2023/05/01 07:56:29;;;;;;;1.70;1.60;;;16.50;99.90;;;;;;4979381;28;20346;-67
2023/05/01 07:58:56;;;;;;;1.75;1.65;;;16.60;99.90;;;;;;4995260;28;20201;-66
2023/05/01 08:01:23;;;;;;;1.70;1.60;;;16.50;99.90;;;;;;5000098;28;20290;-67
2023/05/01 08:03:50;;;;;;;3.05;1.60;;;16.70;99.90;;;;;;4979041;28;20284;-67
2023/05/01 08:06:19;;;;;;;1.60;1.50;;;16.80;99.90;;;;;;5001938;28;20258;-66
2023/05/01 08:08:46;;;;;;;1.45;1.42;;;16.90;99.90;;;;;;4997557;28;20370;-65
2023/05/01 08:11:13;;;;;;;1.40;1.35;;;16.80;99.90;;;;;;5000861;28;20302;-68
2023/05/01 08:13:40;;;;;;;1.80;1.70;;;16.60;99.90;;;;;;4997741;28;20484;-66
2023/05/01 08:16:07;;;;;;;1.85;1.75;;;16.60;99.90;;;;;;5000351;28;20310;-66
2023/05/01 08:18:35;;;;;;;1.83;1.73;;;16.60;99.90;;;;;;4993217;28;20203;-66
2023/05/01 08:21:02;;;;;;;2.22;1.80;;;16.70;99.90;;;;;;4997831;28;20246;-68
2023/05/01 08:23:30;;;;;;;1.73;1.63;;;16.80;99.90;;;;;;4979409;28;20220;-68
2023/05/01 08:25:57;;;;;;;1.75;1.65;;;16.90;99.90;;;;;;4996177;28;20231;-68
2023/05/01 08:28:25;;;;;;;1.80;1.70;;;16.90;99.90;;;;;;4998681;28;20283;-67
2023/05/01 08:30:52;;;;;;;1.75;1.65;;;17.00;99.90;;;;;;4995567;28;20294;-68
2023/05/01 08:33:19;;;;;;;2.25;1.80;;;17.20;99.90;;;;;;4995588;28;20792;-68
2023/05/01 08:35:47;;;;;;;2.00;1.77;;;17.20;99.90;;;;;;5000039;28;20880;-67
2023/05/01 08:38:14;;;;;;;2.28;2.08;;;17.30;99.90;;;;;;5000572;28;20224;-69
2023/05/01 08:40:49;;;;;;;1.75;1.65;;;17.40;99.90;;;;;;5002511;28;20231;-68
2023/05/01 08:43:17;;;;;;;1.73;1.63;;;17.40;99.90;;;;;;4983158;28;20303;-66
2023/05/01 08:45:46;;;;;;;1.80;1.70;;;17.40;99.90;;;;;;4998419;28;20237;-66
2023/05/01 08:48:17;;;;;;;1.70;1.60;;;17.50;99.90;;;;;;4999550;28;20235;-67
2023/05/01 08:50:46;;;;;;;1.70;1.60;;;17.50;99.90;;;;;;4982916;28;20291;-67
2023/05/01 08:53:16;;;;;;;1.83;1.73;;;17.50;99.90;;;;;;4999216;28;20803;-67
2023/05/01 08:55:46;;;;;;;2.03;1.92;;;17.40;99.90;;;;;;4999507;28;20214;-66
2023/05/01 08:58:15;;;;;;;2.17;1.80;;;17.40;99.90;;;;;;5001373;28;20356;-67
2023/05/01 09:00:43;;;;;;;2.10;2.00;;;17.40;99.90;;;;;;5000246;28;20256;-67
2023/05/01 09:03:12;;;;;;;2.05;1.92;;;17.50;99.90;;;;;;4981731;28;20232;-67
2023/05/01 09:05:39;;;;;;;1.80;1.70;;;17.50;99.90;;;;;;4999510;28;20224;-67
2023/05/01 09:08:06;;;;;;;1.67;1.58;;;17.60;99.90;;;;;;4998318;28;20228;-66
2023/05/01 09:10:38;;;;;;;2.03;1.92;;;17.50;99.90;;;;;;5000452;28;20209;-67
2023/05/01 09:13:08;;;;;;;1.90;1.80;;;17.60;99.90;;;;;;5002852;28;20255;-67
2023/05/01 09:15:35;;;;;;;2.33;2.15;;;17.70;99.90;;;;;;4995595;28;20301;-66
2023/05/01 09:18:03;;;;;;;2.45;2.10;;;17.70;99.90;;;;;;4996481;28;20457;-67
2023/05/01 09:20:30;;;;;;;1.90;1.80;;;17.80;99.90;;;;;;5001054;28;20235;-67
2023/05/01 09:22:57;;;;;;;2.38;2.17;;;17.90;99.90;;;;;;5001623;28;22674;-67
2023/05/01 09:25:24;;;;;;;2.15;2.00;;;17.90;99.90;;;;;;5010182;28;20224;-67
2023/05/01 09:27:52;;;;;;;1.77;1.67;;;18.00;99.90;;;;;;4966229;28;20648;-67
2023/05/01 09:30:32;;;;;;;2.10;2.00;;;18.10;99.90;;;;;;4998475;28;20291;-67
2023/05/01 09:33:09;;;;;;;2.10;2.00;;;18.00;99.90;;;;;;4992845;28;20615;-67
2023/05/01 09:35:52;;;;;;;2.25;2.15;;;17.80;99.90;;;;;;5000992;28;20204;-67
2023/05/01 09:38:21;;;;;;;2.03;1.92;;;17.70;99.90;;;;;;4994541;28;20323;-67
2023/05/01 09:40:48;;;;;;;2.50;1.83;;;17.80;99.90;;;;;;4996060;28;20395;-68
2023/05/01 09:43:25;;;;;;;2.50;2.30;;;17.90;99.90;;;;;;4981980;28;20286;-67
2023/05/01 09:46:08;;;;;;;2.25;2.05;;;18.00;99.90;;;;;;4998330;28;20207;-67
2023/05/01 09:48:36;;;;;;;2.40;2.20;;;18.00;99.90;;;;;;4997759;28;20553;-68
2023/05/01 09:51:20;;;;;;;3.10;2.90;;;17.90;99.90;;;;;;4998371;28;20205;-67
2023/05/01 09:53:48;;;;;;;2.15;2.03;;;17.80;99.90;;;;;;4999265;28;20871;-67
2023/05/01 09:56:16;;;;;;;2.70;2.50;;;17.70;99.90;;;;;;4978781;28;20207;-67
2023/05/01 09:58:43;;;;;;;2.70;2.42;;;17.60;99.90;;;;;;4998036;28;20675;-68
2023/05/01 10:01:12;;;;;;;2.90;2.47;;;17.70;99.90;;;;;;4995890;28;20208;-67
2023/05/01 10:03:39;;;;;;;2.50;2.30;;;17.80;99.90;;;;;;4997386;28;20217;-67
2023/05/01 10:06:06;;;;;;;2.80;2.60;;;17.80;99.90;;;;;;5000508;28;20209;-67
2023/05/01 10:08:47;;;;;;;2.60;2.40;;;17.90;99.90;;;;;;4999131;28;20216;-66
2023/05/01 10:11:14;;;;;;;2.95;2.65;;;18.00;99.90;;;;;;4995849;28;20639;-68
2023/05/01 10:13:42;;;;;;;3.20;3.00;;;18.10;99.90;;;;;;4997647;28;20322;-68
2023/05/01 10:16:28;;;;;;;2.55;2.35;;;18.30;99.90;;;;;;4981054;28;20214;-68
2023/05/01 10:18:56;;;;;;;2.50;2.40;;;18.60;99.90;;;;;;4995047;28;20197;-68
2023/05/01 10:21:23;;;;;;;2.25;2.15;;;19.00;99.90;;;;;;4997901;28;20200;-68
2023/05/01 10:23:52;;;;;;;2.15;2.00;;;19.30;99.90;;;;;;4999212;28;20274;-67
2023/05/01 10:26:19;;;;;;;2.50;2.30;;;19.70;99.90;;;;;;5000490;28;20215;-68
2023/05/01 10:28:48;;;;;;;3.00;2.80;;;19.80;99.90;;;;;;4999853;28;20205;-69
2023/05/01 10:31:16;;;;;;;2.95;2.75;;;19.80;99.90;;;;;;5007471;28;20223;-68
2023/05/01 10:33:44;;;;;;;2.95;2.58;;;19.60;99.90;;;;;;5020553;28;20228;-67
2023/05/01 10:36:17;;;;;;;3.80;2.70;;;19.30;99.90;;;;;;5011337;28;20540;-68
2023/05/01 10:38:47;;;;;;;2.90;2.70;;;19.20;99.90;;;;;;5002044;28;20311;-69
2023/05/01 10:41:14;;;;;;;2.83;2.63;;;19.00;99.90;;;;;;4996771;28;20215;-68
2023/05/01 10:43:42;;;;;;;2.85;2.53;;;18.90;99.90;;;;;;5001230;28;20308;-68
2023/05/01 10:46:38;;;;;;;3.00;2.80;;;18.90;99.90;;;;;;4998063;28;20196;-68
2023/05/01 10:49:05;;;;;;;3.05;2.78;;;19.00;99.90;;;;;;4952211;28;20424;-68
2023/05/01 10:51:33;;;;;;;2.80;2.60;;;19.10;99.90;;;;;;4985294;28;20207;-68
2023/05/01 10:54:23;;;;;;;2.17;2.08;;;19.20;99.90;;;;;;5000194;28;20224;-69
2023/05/01 10:56:51;;;;;;;3.13;2.90;;;19.50;99.90;;;;;;5001141;28;20202;-69
2023/05/01 10:59:18;;;;;;;3.40;2.85;;;19.60;99.90;;;;;;4996798;28;20328;-67
2023/05/01 11:01:47;;;;;;;3.13;2.92;;;19.50;99.90;;;;;;4995553;28;20294;-68
2023/05/01 11:04:50;;;;;;;2.80;2.60;;;19.40;99.90;;;;;;4994489;28;20748;-68
2023/05/01 11:07:19;;;;;;;2.80;2.60;;;19.40;99.90;;;;;;4999751;28;20687;-68
2023/05/01 11:09:48;;;;;;;2.60;2.40;;;19.50;99.90;;;;;;4993801;28;20201;-67
2023/05/01 11:12:16;;;;;;;4.50;3.00;;;19.60;99.90;;;;;;4983912;28;20244;-69
2023/05/01 11:15:02;;;;;;;4.65;3.00;;;19.60;99.90;;;;;;4993439;28;20292;-69
2023/05/01 11:17:56;;;;;;;2.85;2.65;;;19.60;99.90;;;;;;5000154;28;20232;-69
2023/05/01 11:20:49;;;;;;;2.72;2.55;;;19.70;99.90;;;;;;4977131;28;20216;-68
2023/05/01 11:23:20;;;;;;;2.75;2.55;;;19.70;99.90;;;;;;4995281;28;20228;-68
2023/05/01 11:25:51;;;;;;;2.65;2.45;;;19.90;99.90;;;;;;4997506;28;20283;-68
2023/05/01 11:28:31;;;;;;;2.50;2.40;;;20.00;99.90;;;;;;4997766;28;20203;-68
2023/05/01 11:31:00;;;;;;;3.10;2.85;;;20.10;99.90;;;;;;4989973;28;20211;-69
2023/05/01 11:33:29;;;;;;;2.70;2.50;;;19.90;99.90;;;;;;4996440;28;20817;-68
2023/05/01 11:36:01;;;;;;;3.38;2.70;;;19.60;99.90;;;;;;4998510;28;20304;-68
2023/05/01 11:38:31;;;;;;;3.03;2.83;;;19.40;99.90;;;;;;4997752;28;20212;-69
2023/05/01 11:41:02;;;;;;;2.95;2.53;;;19.10;99.90;;;;;;4976136;28;20606;-68
2023/05/01 11:43:30;;;;;;;3.22;2.92;;;18.90;99.90;;;;;;4995843;28;20248;-69
2023/05/01 11:46:02;;;;;;;3.03;2.75;;;18.90;99.90;;;;;;4997264;28;20239;-68
2023/05/01 11:48:31;;;;;;;2.58;2.38;;;18.90;99.90;;;;;;4997409;28;21490;-68
2023/05/01 11:50:58;;;;;;;2.50;2.33;;;19.10;99.90;;;;;;4993310;28;20299;-67
2023/05/01 11:53:26;;;;;;;2.53;2.33;;;19.40;99.90;;;;;;4993754;28;20331;-69
2023/05/01 11:55:53;;;;;;;2.08;1.98;;;19.80;99.90;;;;;;4994120;28;20251;-69
2023/05/01 11:58:35;;;;;;;2.88;2.67;;;20.10;99.90;;;;;;4984098;28;20220;-69
2023/05/01 12:01:02;;;;;;;2.65;2.05;;;20.30;99.90;;;;;;4997292;28;20235;-69
2023/05/01 12:03:41;;;;;;;2.47;2.20;;;20.40;99.90;;;;;;4996843;28;20244;-69
2023/05/01 12:06:10;;;;;;;2.63;2.42;;;20.40;99.90;;;;;;4997627;28;20215;-69
2023/05/01 12:08:38;;;;;;;2.35;2.22;;;20.20;99.90;;;;;;4997920;28;20287;-69
2023/05/01 12:11:07;;;;;;;2.13;2.03;;;20.10;99.90;;;;;;4993374;28;20259;-69
2023/05/01 12:13:35;;;;;;;2.13;2.00;;;20.00;99.90;;;;;;4999481;28;20284;-69
2023/05/01 12:16:03;;;;;;;2.40;2.20;;;19.90;99.90;;;;;;5001335;28;20213;-70
2023/05/01 12:18:32;;;;;;;2.45;2.33;;;19.80;99.90;;;;;;4999711;28;20232;-70
2023/05/01 12:21:00;;;;;;;2.20;2.10;;;19.70;99.90;;;;;;5000166;28;20564;-69
2023/05/01 12:23:36;;;;;;;2.30;2.10;;;19.60;99.90;;;;;;5002391;28;20232;-69
2023/05/01 12:26:16;;;;;;;2.70;2.50;;;19.50;99.90;;;;;;5003208;28;20685;-69
2023/05/01 12:28:54;;;;;;;2.10;2.00;;;19.50;99.90;;;;;;5002468;28;20748;-69
2023/05/01 12:31:21;;;;;;;2.95;2.58;;;19.60;99.90;;;;;;5000157;28;20221;-69
2023/05/01 12:33:55;;;;;;;2.45;2.22;;;19.60;99.90;;;;;;4998468;28;20228;-69
2023/05/01 12:36:25;;;;;;;2.60;2.40;;;19.50;99.90;;;;;;4997175;28;20204;-69
2023/05/01 12:38:59;;;;;;;2.63;2.45;;;19.50;99.90;;;;;;4993200;28;20225;-68
2023/05/01 12:41:34;;;;;;;2.60;2.40;;;19.40;99.90;;;;;;4993675;28;20214;-69
2023/05/01 12:44:01;;;;;;;2.53;2.42;;;19.50;99.90;;;;;;4999626;28;20296;-70
2023/05/01 12:46:29;;;;;;;2.78;2.40;;;19.40;99.90;;;;;;5000161;28;20212;-68
2023/05/01 12:48:57;;;;;;;3.35;2.90;;;19.50;99.90;;;;;;5003623;28;20289;-68
2023/05/01 12:51:26;;;;;;;4.10;2.50;;;19.40;99.90;;;;;;5003545;28;20228;-69
2023/05/01 12:53:56;;;;;;;2.55;2.35;;;19.40;99.90;;;;;;5000931;28;20319;-69
2023/05/01 12:56:24;;;;;;;2.88;2.67;;;19.40;99.90;;;;;;4999669;28;20220;-69
2023/05/01 12:58:52;;;;;;;2.88;2.67;;;19.40;99.90;;;;;;4985837;28;20216;-68